createdAt,value
2018-08-07T00:00:10.055Z,48.03
2018-08-07T00:02:03.400Z,48.13
2018-08-07T00:03:03.414Z,47.93
2018-08-07T00:04:56.758Z,48.51
2018-08-07T00:05:56.778Z,48.51
2018-08-07T00:07:50.131Z,48.41
2018-08-07T00:08:50.139Z,48.41
2018-08-07T00:10:43.487Z,48.61
2018-08-07T00:11:43.503Z,48.51
2018-08-07T00:13:36.854Z,48.41
2018-08-07T00:14:36.866Z,48.41
2018-08-07T00:16:30.205Z,48.22
2018-08-07T00:17:30.222Z,48.61
2018-08-07T00:19:23.561Z,48.71
2018-08-07T00:20:23.563Z,48.90
2018-08-07T00:22:16.901Z,48.80
2018-08-07T00:23:16.918Z,48.90
2018-08-07T00:25:10.265Z,48.71
2018-08-07T00:26:10.271Z,48.61
2018-08-07T00:28:03.623Z,48.22
2018-08-07T00:29:03.613Z,48.32
2018-08-07T00:30:56.959Z,48.61
2018-08-07T00:31:56.966Z,48.61
2018-08-07T00:33:50.324Z,48.61
2018-08-07T00:34:50.335Z,48.41
2018-08-07T00:36:43.672Z,47.93
2018-08-07T00:37:43.722Z,48.03
2018-08-07T00:39:37.045Z,48.32
2018-08-07T00:40:37.061Z,48.32
2018-08-07T00:42:30.393Z,47.93
2018-08-07T00:43:30.415Z,48.90
2018-08-07T00:45:23.811Z,48.61
2018-08-07T00:46:23.820Z,48.61
2018-08-07T00:48:17.162Z,48.80
2018-08-07T00:49:17.175Z,48.71
2018-08-07T00:51:10.107Z,48.51
2018-08-07T00:52:10.112Z,48.90
2018-08-07T00:54:03.488Z,48.61
2018-08-07T00:55:03.482Z,48.61
2018-08-07T00:56:56.404Z,48.41
2018-08-07T00:57:56.423Z,48.32
2018-08-07T00:59:49.763Z,48.61
2018-08-07T01:00:49.768Z,48.51
2018-08-07T01:02:43.120Z,47.93
2018-08-07T01:03:43.138Z,48.22
2018-08-07T01:05:36.063Z,48.61
2018-08-07T01:06:36.070Z,48.51
2018-08-07T01:08:29.454Z,48.71
2018-08-07T01:09:29.473Z,48.32
2018-08-07T01:11:22.824Z,48.32
2018-08-07T01:12:22.831Z,48.32
2018-08-07T01:14:15.744Z,48.32
2018-08-07T01:15:15.764Z,48.32
2018-08-07T01:17:09.117Z,48.32
2018-08-07T01:18:09.125Z,48.51
2018-08-07T01:20:02.457Z,48.80
2018-08-07T01:21:02.474Z,48.71
2018-08-07T01:22:55.820Z,48.51
2018-08-07T01:23:55.827Z,48.32
2018-08-07T01:25:49.172Z,48.51
2018-08-07T01:26:49.227Z,48.51
2018-08-07T01:28:42.510Z,48.32
2018-08-07T01:29:42.522Z,48.51
2018-08-07T01:31:35.862Z,48.51
2018-08-07T01:32:35.869Z,48.22
2018-08-07T01:34:29.220Z,48.41
2018-08-07T01:35:29.239Z,48.51
2018-08-07T01:37:22.572Z,48.32
2018-08-07T01:38:22.582Z,48.32
2018-08-07T01:40:15.920Z,48.51
2018-08-07T01:41:15.937Z,48.71
2018-08-07T01:43:09.277Z,48.32
2018-08-07T01:44:09.284Z,48.41
2018-08-07T01:46:02.649Z,48.61
2018-08-07T01:47:02.656Z,48.71
2018-08-07T01:48:56.040Z,48.51
2018-08-07T01:49:56.068Z,48.51
2018-08-07T01:51:49.396Z,48.41
2018-08-07T01:52:49.406Z,48.41
2018-08-07T01:54:42.755Z,48.51
2018-08-07T01:55:42.774Z,48.41
2018-08-07T01:57:36.117Z,48.22
2018-08-07T01:58:36.129Z,48.78
2018-08-07T02:00:29.462Z,48.32
2018-08-07T02:01:29.490Z,48.32
2018-08-07T02:03:22.839Z,48.41
2018-08-07T02:04:22.849Z,48.13
2018-08-07T02:06:15.769Z,48.78
2018-08-07T02:07:15.788Z,48.58
2018-08-07T02:09:09.130Z,48.41
2018-08-07T02:10:09.136Z,48.61
2018-08-07T02:12:02.485Z,48.71
2018-08-07T02:13:02.492Z,48.71
2018-08-07T02:14:55.830Z,48.41
2018-08-07T02:15:55.845Z,48.80
2018-08-07T02:17:49.193Z,49.00
2018-08-07T02:18:49.203Z,48.80
2018-08-07T02:20:42.117Z,48.80
2018-08-07T02:21:42.133Z,48.88
2018-08-07T02:23:35.484Z,48.80
2018-08-07T02:24:35.494Z,48.78
2018-08-07T02:26:28.830Z,48.80
2018-08-07T02:27:28.851Z,48.80
2018-08-07T02:29:22.188Z,48.90
2018-08-07T02:30:22.197Z,48.51
2018-08-07T02:32:15.528Z,48.90
2018-08-07T02:33:15.540Z,48.80
2018-08-07T02:35:08.883Z,49.10
2018-08-07T02:36:08.892Z,49.10
2018-08-07T02:38:02.275Z,48.71
2018-08-07T02:39:02.270Z,48.71
2018-08-07T02:40:55.615Z,48.90
2018-08-07T02:41:55.629Z,48.71
2018-08-07T02:43:48.976Z,48.78
2018-08-07T02:44:48.986Z,48.71
2018-08-07T02:46:42.326Z,48.90
2018-08-07T02:47:42.343Z,48.78
2018-08-07T02:49:35.698Z,48.58
2018-08-07T02:50:35.700Z,48.20
2018-08-07T02:52:29.044Z,48.58
2018-08-07T02:53:29.068Z,48.30
2018-08-07T02:55:22.401Z,48.49
2018-08-07T02:56:22.410Z,48.78
2018-08-07T02:58:15.739Z,48.10
2018-08-07T02:59:15.759Z,48.80
2018-08-07T03:01:09.108Z,48.30
2018-08-07T03:02:09.117Z,48.10
2018-08-07T03:04:02.472Z,48.30
2018-08-07T03:05:02.477Z,48.78
2018-08-07T03:06:55.812Z,48.68
2018-08-07T03:07:55.822Z,48.78
2018-08-07T03:09:49.200Z,48.30
2018-08-07T03:10:49.209Z,48.49
2018-08-07T03:12:42.570Z,48.49
2018-08-07T03:13:42.588Z,48.58
2018-08-07T03:15:35.931Z,48.10
2018-08-07T03:16:35.945Z,48.49
2018-08-07T03:18:29.277Z,48.68
2018-08-07T03:19:29.295Z,48.68
2018-08-07T03:21:22.640Z,48.78
2018-08-07T03:22:22.650Z,48.30
2018-08-07T03:24:15.996Z,48.39
2018-08-07T03:25:16.015Z,48.49
2018-08-07T03:27:09.349Z,48.78
2018-08-07T03:28:09.359Z,48.49
2018-08-07T03:30:02.705Z,48.68
2018-08-07T03:31:02.722Z,48.68
2018-08-07T03:32:56.070Z,48.49
2018-08-07T03:33:56.077Z,48.39
2018-08-07T03:35:49.425Z,48.78
2018-08-07T03:36:49.440Z,48.49
2018-08-07T03:38:42.760Z,48.58
2018-08-07T03:39:42.776Z,48.58
2018-08-07T03:41:36.115Z,48.78
2018-08-07T03:42:36.126Z,48.78
2018-08-07T03:44:31.355Z,47.23
2018-08-07T03:45:31.361Z,47.30
2018-08-07T03:47:24.588Z,48.25
2018-08-07T03:48:24.601Z,48.35
2018-08-07T03:50:17.737Z,48.80
2018-08-07T03:51:17.839Z,49.10
2018-08-07T03:53:10.914Z,49.66
2018-08-07T03:54:10.913Z,50.02
2018-08-07T03:56:04.072Z,50.70
2018-08-07T03:57:04.081Z,50.87
2018-08-07T03:58:57.328Z,51.45
2018-08-07T03:59:57.333Z,51.74
2018-08-07T04:01:50.490Z,52.10
2018-08-07T04:02:50.497Z,51.74
2018-08-07T04:04:43.636Z,52.20
2018-08-07T04:05:43.660Z,52.00
2018-08-07T04:07:36.812Z,52.68
2018-08-07T04:08:36.818Z,52.49
2018-08-07T04:10:30.063Z,53.07
2018-08-07T04:11:30.078Z,53.07
2018-08-07T04:13:23.234Z,52.95
2018-08-07T04:14:23.245Z,52.78
2018-08-07T04:16:16.486Z,52.97
2018-08-07T04:17:16.501Z,52.68
2018-08-07T04:19:09.748Z,52.78
2018-08-07T04:20:09.758Z,53.07
2018-08-07T04:22:03.002Z,52.97
2018-08-07T04:23:03.022Z,52.97
2018-08-07T04:24:56.177Z,52.87
2018-08-07T04:25:56.204Z,52.87
2018-08-07T04:27:49.448Z,53.17
2018-08-07T04:28:49.454Z,53.17
2018-08-07T04:30:42.696Z,53.07
2018-08-07T04:31:42.709Z,52.68
2018-08-07T04:33:35.962Z,52.58
2018-08-07T04:34:35.968Z,52.68
2018-08-07T04:36:29.220Z,52.68
2018-08-07T04:37:29.241Z,52.68
2018-08-07T04:39:22.510Z,53.17
2018-08-07T04:40:22.506Z,52.68
2018-08-07T04:42:15.746Z,53.33
2018-08-07T04:43:15.756Z,53.72
2018-08-07T04:45:08.913Z,53.43
2018-08-07T04:46:08.920Z,53.81
2018-08-07T04:48:02.061Z,52.87
2018-08-07T04:49:02.080Z,52.68
2018-08-07T04:51:06.905Z,52.32
2018-08-07T04:52:06.912Z,51.84
2018-08-07T04:54:00.058Z,51.96
2018-08-07T04:55:00.051Z,51.86
2018-08-07T04:56:53.297Z,50.99
2018-08-07T04:57:53.314Z,50.60
2018-08-07T04:59:46.480Z,50.62
2018-08-07T05:00:46.476Z,50.62
2018-08-07T05:02:41.077Z,50.46
2018-08-07T05:03:41.090Z,49.87
2018-08-07T05:05:34.240Z,50.16
2018-08-07T05:06:34.246Z,50.56
2018-08-07T05:08:28.874Z,49.77
2018-08-07T05:09:28.901Z,49.97
2018-08-07T05:11:22.024Z,49.80
2018-08-07T05:12:22.029Z,49.41
2018-08-07T05:14:16.699Z,49.51
2018-08-07T05:15:16.668Z,49.51
2018-08-07T05:17:09.789Z,49.32
2018-08-07T05:18:09.789Z,48.73
2018-08-07T05:20:04.469Z,48.83
2018-08-07T05:21:04.507Z,49.12
2018-08-07T05:22:57.604Z,49.05
2018-08-07T05:23:57.626Z,49.34
2018-08-07T05:25:52.331Z,49.24
2018-08-07T05:26:52.272Z,49.44
2018-08-07T05:28:45.470Z,49.15
2018-08-07T05:29:45.433Z,49.24
2018-08-07T05:31:40.026Z,49.24
2018-08-07T05:32:40.032Z,49.15
2018-08-07T05:34:33.176Z,49.15
2018-08-07T05:35:33.206Z,49.15
2018-08-07T05:37:27.859Z,49.15
2018-08-07T05:38:27.852Z,49.15
2018-08-07T05:40:20.988Z,49.24
2018-08-07T05:41:20.989Z,49.15
2018-08-07T05:43:15.637Z,49.24
2018-08-07T05:44:15.635Z,49.24
2018-08-07T05:46:08.769Z,49.24
2018-08-07T05:47:08.785Z,49.15
2018-08-07T05:49:14.110Z,49.24
2018-08-07T05:50:14.244Z,49.24
2018-08-07T05:52:08.732Z,49.34
2018-08-07T05:53:08.731Z,49.15
2018-08-07T05:55:01.876Z,49.37
2018-08-07T05:56:01.884Z,49.17
2018-08-07T05:57:56.547Z,49.37
2018-08-07T05:58:56.522Z,49.27
2018-08-07T06:00:49.682Z,49.07
2018-08-07T06:01:49.689Z,49.07
2018-08-07T06:03:44.693Z,49.37
2018-08-07T06:04:44.713Z,49.27
2018-08-07T06:06:39.887Z,48.97
2018-08-07T06:07:39.896Z,49.37
2018-08-07T06:08:39.915Z,49.17
2018-08-07T06:09:39.933Z,49.27
2018-08-07T06:10:39.957Z,49.17
2018-08-07T06:11:39.977Z,49.27
2018-08-07T06:12:40.004Z,49.17
2018-08-07T06:13:40.033Z,49.27
2018-08-07T06:14:40.043Z,49.17
2018-08-07T06:15:40.066Z,49.27
2018-08-07T06:16:40.085Z,49.27
2018-08-07T06:17:40.107Z,49.27
2018-08-07T06:18:40.123Z,49.56
2018-08-07T06:19:40.152Z,49.37
2018-08-07T06:20:40.170Z,49.37
2018-08-07T06:21:40.185Z,49.37
2018-08-07T06:22:40.217Z,49.17
2018-08-07T06:23:40.231Z,49.37
2018-08-07T06:24:40.253Z,49.27
2018-08-07T06:25:40.295Z,49.27
2018-08-07T06:26:40.297Z,49.46
2018-08-07T06:27:40.322Z,48.97
2018-08-07T06:28:40.371Z,48.97
2018-08-07T06:29:40.353Z,49.17
2018-08-07T06:30:40.387Z,49.17
2018-08-07T06:31:40.411Z,49.27
2018-08-07T06:32:40.422Z,49.27
2018-08-07T06:33:40.446Z,48.97
2018-08-07T06:34:40.469Z,49.27
2018-08-07T06:35:40.491Z,49.27
2018-08-07T06:36:40.509Z,48.97
2018-08-07T06:37:40.580Z,48.97
2018-08-07T06:38:40.552Z,48.97
2018-08-07T06:39:40.571Z,49.07
2018-08-07T06:40:40.597Z,49.07
2018-08-07T06:41:40.618Z,49.17
2018-08-07T06:42:40.637Z,49.46
2018-08-07T06:43:40.671Z,49.07
2018-08-07T06:44:40.683Z,49.27
2018-08-07T06:45:40.718Z,49.27
2018-08-07T06:46:40.729Z,49.37
2018-08-07T06:47:40.807Z,49.37
2018-08-07T06:48:40.777Z,49.37
2018-08-07T06:49:40.785Z,49.37
2018-08-07T06:50:40.824Z,49.27
2018-08-07T06:51:40.829Z,49.07
2018-08-07T06:52:40.853Z,49.17
2018-08-07T06:53:40.879Z,48.97
2018-08-07T06:54:40.892Z,49.17
2018-08-07T06:55:40.917Z,49.07
2018-08-07T06:56:40.991Z,49.27
2018-08-07T06:57:40.955Z,49.46
2018-08-07T06:58:41.008Z,49.27
2018-08-07T06:59:41.005Z,49.46
2018-08-07T07:00:41.028Z,49.46
2018-08-07T07:01:41.046Z,49.27
2018-08-07T07:02:41.112Z,49.27
2018-08-07T07:03:41.083Z,49.27
2018-08-07T07:04:41.111Z,49.37
2018-08-07T07:05:41.127Z,49.27
2018-08-07T07:06:41.152Z,49.56
2018-08-07T07:07:41.175Z,49.56
2018-08-07T07:08:41.191Z,49.66
2018-08-07T07:09:41.261Z,49.66
2018-08-07T07:10:41.239Z,49.66
2018-08-07T07:11:41.258Z,49.46
2018-08-07T07:12:41.282Z,49.37
2018-08-07T07:13:41.303Z,49.37
2018-08-07T07:14:41.329Z,49.37
2018-08-07T07:15:41.354Z,49.46
2018-08-07T07:16:41.365Z,49.46
2018-08-07T07:17:41.392Z,49.46
2018-08-07T07:18:41.412Z,49.46
2018-08-07T07:19:41.430Z,49.56
2018-08-07T07:20:41.451Z,49.46
2018-08-07T07:21:41.477Z,49.56
2018-08-07T07:22:41.497Z,49.46
2018-08-07T07:23:41.507Z,49.66
2018-08-07T07:24:41.537Z,49.76
2018-08-07T07:25:41.565Z,49.66
2018-08-07T07:26:41.602Z,49.66
2018-08-07T07:27:41.608Z,49.66
2018-08-07T07:28:41.623Z,49.68
2018-08-07T07:29:41.648Z,49.58
2018-08-07T07:30:41.666Z,49.56
2018-08-07T07:31:41.690Z,49.56
2018-08-07T07:32:41.718Z,49.76
2018-08-07T07:33:41.735Z,49.46
2018-08-07T07:34:41.810Z,49.78
2018-08-07T07:35:41.770Z,49.46
2018-08-07T07:36:41.797Z,50.04
2018-08-07T07:37:41.818Z,49.46
2018-08-07T07:38:41.838Z,49.85
2018-08-07T07:39:41.860Z,49.58
2018-08-07T07:40:41.897Z,49.78
2018-08-07T07:41:41.901Z,50.07
2018-08-07T07:42:41.924Z,49.78
2018-08-07T07:43:41.945Z,49.87
2018-08-07T07:44:41.973Z,49.78
2018-08-07T07:45:41.993Z,49.76
2018-08-07T07:46:42.051Z,49.87
2018-08-07T07:47:42.040Z,49.95
2018-08-07T07:48:42.056Z,49.58
2018-08-07T07:49:42.074Z,49.58
2018-08-07T07:50:42.092Z,49.78
2018-08-07T07:51:42.120Z,49.87
2018-08-07T07:52:42.147Z,49.58
2018-08-07T07:53:42.162Z,49.66
2018-08-07T07:54:42.194Z,49.66
2018-08-07T07:55:42.204Z,49.78
2018-08-07T07:56:42.224Z,49.68
2018-08-07T07:57:42.242Z,49.85
2018-08-07T07:58:42.274Z,49.87
2018-08-07T07:59:42.341Z,49.58
2018-08-07T08:00:42.313Z,49.87
2018-08-07T08:01:42.334Z,49.97
2018-08-07T08:02:42.353Z,50.16
2018-08-07T08:03:42.374Z,50.16
2018-08-07T08:04:42.399Z,49.78
2018-08-07T08:05:42.505Z,49.95
2018-08-07T08:06:42.446Z,49.58
2018-08-07T08:07:42.467Z,49.68
2018-08-07T08:08:42.483Z,50.26
2018-08-07T08:09:42.501Z,50.07
2018-08-07T08:10:42.520Z,50.16
2018-08-07T08:11:42.548Z,50.07
2018-08-07T08:12:42.578Z,50.24
2018-08-07T08:13:42.606Z,50.26
2018-08-07T08:14:42.614Z,50.14
2018-08-07T08:15:42.694Z,49.56
2018-08-07T08:16:42.753Z,50.26
2018-08-07T08:17:42.673Z,50.26
2018-08-07T08:18:42.689Z,50.16
2018-08-07T08:19:42.723Z,50.14
2018-08-07T08:20:42.740Z,50.07
2018-08-07T08:21:42.761Z,50.16
2018-08-07T08:22:42.786Z,49.66
2018-08-07T08:23:42.809Z,50.26
2018-08-07T08:24:42.826Z,50.07
2018-08-07T08:25:42.846Z,49.85
2018-08-07T08:26:42.866Z,49.78
2018-08-07T08:27:42.891Z,49.85
2018-08-07T08:28:42.914Z,49.87
2018-08-07T08:29:42.991Z,49.85
2018-08-07T08:30:42.962Z,49.87
2018-08-07T08:31:42.978Z,49.87
2018-08-07T08:32:43.007Z,49.87
2018-08-07T08:33:43.021Z,49.97
2018-08-07T08:34:43.042Z,49.85
2018-08-07T08:35:43.124Z,49.97
2018-08-07T08:36:43.077Z,50.14
2018-08-07T08:37:43.142Z,49.97
2018-08-07T08:38:43.131Z,49.95
2018-08-07T08:39:43.150Z,50.07
2018-08-07T08:40:43.172Z,49.97
2018-08-07T08:41:43.197Z,49.95
2018-08-07T08:42:43.215Z,49.97
2018-08-07T08:43:43.238Z,50.07
2018-08-07T08:44:43.255Z,49.97
2018-08-07T08:45:43.294Z,50.07
2018-08-07T08:46:43.300Z,49.97
2018-08-07T08:47:43.317Z,49.87
2018-08-07T08:48:43.451Z,50.07
2018-08-07T08:49:43.379Z,49.87
2018-08-07T08:50:43.388Z,49.66
2018-08-07T08:51:43.406Z,50.07
2018-08-07T08:52:43.432Z,50.07
2018-08-07T08:53:43.450Z,49.87
2018-08-07T08:54:43.470Z,49.97
2018-08-07T08:55:43.498Z,50.07
2018-08-07T08:56:43.518Z,49.97
2018-08-07T08:57:43.541Z,49.97
2018-08-07T08:58:43.563Z,50.46
2018-08-07T08:59:43.578Z,50.26
2018-08-07T09:00:43.599Z,49.97
2018-08-07T09:01:43.620Z,49.95
2018-08-07T09:02:43.647Z,50.56
2018-08-07T09:03:43.674Z,50.26
2018-08-07T09:04:43.692Z,50.26
2018-08-07T09:05:43.709Z,50.56
2018-08-07T09:06:43.730Z,50.26
2018-08-07T09:07:43.756Z,50.65
2018-08-07T09:08:43.775Z,50.16
2018-08-07T09:09:43.800Z,50.16
2018-08-07T09:10:44.041Z,50.26
2018-08-07T09:11:43.843Z,50.26
2018-08-07T09:12:43.863Z,50.26
2018-08-07T09:13:43.875Z,50.26
2018-08-07T09:14:43.919Z,50.46
2018-08-07T09:15:43.924Z,50.16
2018-08-07T09:16:43.939Z,50.26
2018-08-07T09:17:43.970Z,50.26
2018-08-07T09:18:43.996Z,50.26
2018-08-07T09:19:44.009Z,50.26
2018-08-07T09:20:44.036Z,50.36
2018-08-07T09:21:44.162Z,50.26
2018-08-07T09:22:44.085Z,50.16
2018-08-07T09:23:44.095Z,50.36
2018-08-07T09:24:44.119Z,50.46
2018-08-07T09:25:44.366Z,50.46
2018-08-07T09:26:44.210Z,50.46
2018-08-07T09:27:44.194Z,49.97
2018-08-07T09:28:44.202Z,50.26
2018-08-07T09:29:44.223Z,50.07
2018-08-07T09:30:44.242Z,50.07
2018-08-07T09:31:44.277Z,50.07
2018-08-07T09:32:44.293Z,50.07
2018-08-07T09:33:44.325Z,50.16
2018-08-07T09:34:44.398Z,50.36
2018-08-07T09:35:44.361Z,50.16
2018-08-07T09:36:44.393Z,50.16
2018-08-07T09:37:44.397Z,50.26
2018-08-07T09:38:44.423Z,50.16
2018-08-07T09:39:44.552Z,50.36
2018-08-07T09:40:44.461Z,50.26
2018-08-07T09:41:44.486Z,50.36
2018-08-07T09:42:44.510Z,50.16
2018-08-07T09:43:44.533Z,50.26
2018-08-07T09:44:44.550Z,50.26
2018-08-07T09:45:44.575Z,50.26
2018-08-07T09:46:44.592Z,50.16
2018-08-07T09:47:44.614Z,50.07
2018-08-07T09:48:44.638Z,50.36
2018-08-07T09:49:44.677Z,50.16
2018-08-07T09:50:44.681Z,50.07
2018-08-07T09:51:44.695Z,50.07
2018-08-07T09:52:44.765Z,50.16
2018-08-07T09:53:44.744Z,50.16
2018-08-07T09:54:44.765Z,50.16
2018-08-07T09:55:44.787Z,50.16
2018-08-07T09:56:44.811Z,50.16
2018-08-07T09:57:44.825Z,50.16
2018-08-07T09:58:44.851Z,50.16
2018-08-07T09:59:44.877Z,50.16
2018-08-07T10:00:44.894Z,50.26
2018-08-07T10:01:44.930Z,50.16
2018-08-07T10:02:44.937Z,50.16
2018-08-07T10:03:44.966Z,50.16
2018-08-07T10:04:44.982Z,50.07
2018-08-07T10:05:44.998Z,49.97
2018-08-07T10:06:45.028Z,50.07
2018-08-07T10:07:45.042Z,49.97
2018-08-07T10:08:45.064Z,50.07
2018-08-07T10:09:45.081Z,50.07
2018-08-07T10:10:45.119Z,49.87
2018-08-07T10:11:45.130Z,49.97
2018-08-07T10:12:45.166Z,49.97
2018-08-07T10:13:45.185Z,49.97
2018-08-07T10:14:45.203Z,50.26
2018-08-07T10:15:45.216Z,50.07
2018-08-07T10:16:45.235Z,50.07
2018-08-07T10:17:45.313Z,50.36
2018-08-07T10:18:45.280Z,50.26
2018-08-07T10:19:45.305Z,49.78
2018-08-07T10:20:45.327Z,50.36
2018-08-07T10:21:45.351Z,50.07
2018-08-07T10:22:45.371Z,50.46
2018-08-07T10:23:45.390Z,49.78
2018-08-07T10:24:45.416Z,50.36
2018-08-07T10:25:45.456Z,50.46
2018-08-07T10:26:45.459Z,49.87
2018-08-07T10:27:45.498Z,50.46
2018-08-07T10:28:45.502Z,50.46
2018-08-07T10:29:45.516Z,50.46
2018-08-07T10:30:45.592Z,50.56
2018-08-07T10:31:45.572Z,50.46
2018-08-07T10:32:45.581Z,50.56
2018-08-07T10:33:45.606Z,50.16
2018-08-07T10:34:45.633Z,49.97
2018-08-07T10:35:45.661Z,50.46
2018-08-07T10:36:45.669Z,50.46
2018-08-07T10:37:45.680Z,50.36
2018-08-07T10:38:45.719Z,50.26
2018-08-07T10:39:45.726Z,50.36
2018-08-07T10:40:45.831Z,50.56
2018-08-07T10:41:45.786Z,50.16
2018-08-07T10:42:45.814Z,50.56
2018-08-07T10:43:45.917Z,50.46
2018-08-07T10:44:45.843Z,50.26
2018-08-07T10:45:45.871Z,50.26
2018-08-07T10:46:45.907Z,50.26
2018-08-07T10:47:45.939Z,50.36
2018-08-07T10:48:45.940Z,50.36
2018-08-07T10:49:45.956Z,50.36
2018-08-07T10:50:46.034Z,50.36
2018-08-07T10:51:45.993Z,50.36
2018-08-07T10:52:46.011Z,51.14
2018-08-07T10:53:46.137Z,50.16
2018-08-07T10:54:46.060Z,50.65
2018-08-07T10:55:46.083Z,51.04
2018-08-07T10:56:46.113Z,51.04
2018-08-07T10:57:46.136Z,51.04
2018-08-07T10:58:46.143Z,51.04
2018-08-07T10:59:46.176Z,51.04
2018-08-07T11:00:46.251Z,50.85
2018-08-07T11:01:46.211Z,50.95
2018-08-07T11:02:46.234Z,51.04
2018-08-07T11:03:46.264Z,50.95
2018-08-07T11:04:46.274Z,50.95
2018-08-07T11:05:46.357Z,50.75
2018-08-07T11:06:46.317Z,51.04
2018-08-07T11:07:46.339Z,50.95
2018-08-07T11:08:46.362Z,50.65
2018-08-07T11:09:46.398Z,50.65
2018-08-07T11:10:46.477Z,50.65
2018-08-07T11:11:46.426Z,50.65
2018-08-07T11:12:46.443Z,50.85
2018-08-07T11:13:46.514Z,50.65
2018-08-07T11:14:46.498Z,50.65
2018-08-07T11:15:46.508Z,50.65
2018-08-07T11:16:46.534Z,50.85
2018-08-07T11:17:46.568Z,50.75
2018-08-07T11:18:46.579Z,50.75
2018-08-07T11:19:46.602Z,50.85
2018-08-07T11:20:46.618Z,50.75
2018-08-07T11:21:46.653Z,50.95
2018-08-07T11:22:46.659Z,50.85
2018-08-07T11:23:46.779Z,50.75
2018-08-07T11:24:46.736Z,50.85
2018-08-07T11:25:46.792Z,51.04
2018-08-07T11:26:46.741Z,50.75
2018-08-07T11:27:46.770Z,50.95
2018-08-07T11:28:46.789Z,50.95
2018-08-07T11:29:46.818Z,50.75
2018-08-07T11:30:46.845Z,50.85
2018-08-07T11:31:46.867Z,50.85
2018-08-07T11:32:46.880Z,50.95
2018-08-07T11:33:46.905Z,50.95
2018-08-07T11:34:46.940Z,50.85
2018-08-07T11:35:46.934Z,50.65
2018-08-07T11:36:46.964Z,50.75
2018-08-07T11:37:46.993Z,50.85
2018-08-07T11:38:47.017Z,50.95
2018-08-07T11:39:47.052Z,50.75
2018-08-07T11:40:47.104Z,50.65
2018-08-07T11:41:47.072Z,50.87
2018-08-07T11:42:47.097Z,50.75
2018-08-07T11:43:47.108Z,50.75
2018-08-07T11:44:47.141Z,50.85
2018-08-07T11:45:47.168Z,50.65
2018-08-07T11:46:47.185Z,50.85
2018-08-07T11:47:47.216Z,50.75
2018-08-07T11:48:47.219Z,50.85
2018-08-07T11:49:47.242Z,50.68
2018-08-07T11:50:47.269Z,50.65
2018-08-07T11:51:47.293Z,50.95
2018-08-07T11:52:47.331Z,50.65
2018-08-07T11:53:47.355Z,50.95
2018-08-07T11:54:47.359Z,50.65
2018-08-07T11:55:47.384Z,50.95
2018-08-07T11:56:47.413Z,50.65
2018-08-07T11:57:47.417Z,50.95
2018-08-07T11:58:47.447Z,50.75
2018-08-07T11:59:47.465Z,50.85
2018-08-07T12:00:47.484Z,50.75
2018-08-07T12:01:47.534Z,50.78
2018-08-07T12:02:47.522Z,50.85
2018-08-07T12:03:47.549Z,50.97
2018-08-07T12:04:47.573Z,50.78
2018-08-07T12:05:47.591Z,50.87
2018-08-07T12:06:47.611Z,50.85
2018-08-07T12:07:47.631Z,50.85
2018-08-07T12:08:47.659Z,50.65
2018-08-07T12:09:47.678Z,50.56
2018-08-07T12:10:47.701Z,50.58
2018-08-07T12:11:47.728Z,50.58
2018-08-07T12:13:32.573Z,50.65
2018-08-07T12:14:32.574Z,50.65
2018-08-07T12:16:25.698Z,50.68
2018-08-07T12:17:25.706Z,50.56
2018-08-07T12:19:20.342Z,50.87
2018-08-07T12:20:20.355Z,50.75
2018-08-07T12:22:13.556Z,50.58
2018-08-07T12:23:13.567Z,50.75
2018-08-07T12:25:18.958Z,50.78
2018-08-07T12:26:18.881Z,50.58
2018-08-07T12:28:13.496Z,50.78
2018-08-07T12:29:13.509Z,50.58
2018-08-07T12:31:06.656Z,50.97
2018-08-07T12:32:06.671Z,50.65
2018-08-07T12:34:01.311Z,51.14
2018-08-07T12:35:01.335Z,51.14
2018-08-07T12:36:54.440Z,50.95
2018-08-07T12:37:54.454Z,50.78
2018-08-07T12:39:49.165Z,51.07
2018-08-07T12:40:49.114Z,50.68
2018-08-07T12:42:42.251Z,51.17
2018-08-07T12:43:42.241Z,51.17
2018-08-07T12:45:36.879Z,51.07
2018-08-07T12:46:36.932Z,51.17
2018-08-07T12:48:30.027Z,50.97
2018-08-07T12:49:30.039Z,50.97
2018-08-07T12:51:24.652Z,51.07
2018-08-07T12:52:24.675Z,50.87
2018-08-07T12:54:17.815Z,50.87
2018-08-07T12:55:17.821Z,50.85
2018-08-07T12:57:12.488Z,50.87
2018-08-07T12:58:12.488Z,51.07
2018-08-07T13:00:05.648Z,51.07
2018-08-07T13:01:05.659Z,51.07
2018-08-07T13:02:58.794Z,51.36
2018-08-07T13:03:58.784Z,50.58
2018-08-07T13:05:53.413Z,50.97
2018-08-07T13:06:53.476Z,51.07
2018-08-07T13:08:46.554Z,51.07
2018-08-07T13:09:46.559Z,50.97
2018-08-07T13:11:41.201Z,51.07
2018-08-07T13:12:41.204Z,51.07
2018-08-07T13:14:34.370Z,50.87
2018-08-07T13:15:34.369Z,50.87
2018-08-07T13:17:29.042Z,51.45
2018-08-07T13:18:29.024Z,50.87
2018-08-07T13:20:22.146Z,51.07
2018-08-07T13:21:22.163Z,50.87
2018-08-07T13:23:16.772Z,50.97
2018-08-07T13:24:16.796Z,50.87
2018-08-07T13:26:09.955Z,50.97
2018-08-07T13:27:09.931Z,51.07
2018-08-07T13:29:04.565Z,50.78
2018-08-07T13:30:04.583Z,51.45
2018-08-07T13:31:57.740Z,51.36
2018-08-07T13:32:57.733Z,50.87
2018-08-07T13:34:52.372Z,51.07
2018-08-07T13:35:52.379Z,50.97
2018-08-07T13:37:45.532Z,50.58
2018-08-07T13:38:45.520Z,50.78
2018-08-07T13:40:40.193Z,50.78
2018-08-07T13:41:40.204Z,50.78
2018-08-07T13:43:33.301Z,50.87
2018-08-07T13:44:33.324Z,50.97
2018-08-07T13:46:27.952Z,50.58
2018-08-07T13:47:27.952Z,50.87
2018-08-07T13:49:21.083Z,51.45
2018-08-07T13:50:21.093Z,51.36
2018-08-07T13:52:15.713Z,51.45
2018-08-07T13:53:15.723Z,51.45
2018-08-07T13:55:08.880Z,51.17
2018-08-07T13:56:08.890Z,50.97
2018-08-07T13:58:02.029Z,50.97
2018-08-07T13:59:02.048Z,51.07
2018-08-07T14:00:56.672Z,51.07
2018-08-07T14:01:56.676Z,50.87
2018-08-07T14:03:49.850Z,50.78
2018-08-07T14:04:49.838Z,50.78
2018-08-07T14:06:44.474Z,51.45
2018-08-07T14:07:44.469Z,50.58
2018-08-07T14:09:37.611Z,50.97
2018-08-07T14:10:37.621Z,50.87
2018-08-07T14:12:32.261Z,51.07
2018-08-07T14:13:32.284Z,51.17
2018-08-07T14:15:25.447Z,51.07
2018-08-07T14:16:25.419Z,51.36
2018-08-07T14:18:20.068Z,50.97
2018-08-07T14:19:20.092Z,50.97
2018-08-07T14:21:13.213Z,51.07
2018-08-07T14:22:13.213Z,50.87
2018-08-07T14:24:07.835Z,51.17
2018-08-07T14:25:07.865Z,50.87
2018-08-07T14:27:00.995Z,51.07
2018-08-07T14:28:00.985Z,50.97
2018-08-07T14:29:55.622Z,51.07
2018-08-07T14:30:55.634Z,50.58
2018-08-07T14:32:48.768Z,50.78
2018-08-07T14:33:48.791Z,50.97
2018-08-07T14:35:43.438Z,51.07
2018-08-07T14:36:43.466Z,51.45
2018-08-07T14:38:36.569Z,51.07
2018-08-07T14:39:36.584Z,50.87
2018-08-07T14:41:31.266Z,50.87
2018-08-07T14:42:31.232Z,51.07
2018-08-07T14:44:24.376Z,50.97
2018-08-07T14:45:24.398Z,50.78
2018-08-07T14:47:17.550Z,50.78
2018-08-07T14:48:17.558Z,50.78
2018-08-07T14:50:12.204Z,50.97
2018-08-07T14:51:12.210Z,50.97
2018-08-07T14:53:05.366Z,50.87
2018-08-07T14:54:05.379Z,50.97
2018-08-07T14:55:59.986Z,51.17
2018-08-07T14:57:00.003Z,50.58
2018-08-07T14:58:53.162Z,50.58
2018-08-07T14:59:53.180Z,51.07
2018-08-07T15:01:47.847Z,50.97
2018-08-07T15:02:47.853Z,50.58
2018-08-07T15:04:41.017Z,51.17
2018-08-07T15:05:41.031Z,50.87
2018-08-07T15:06:41.048Z,50.87
2018-08-07T15:07:41.083Z,50.97
2018-08-07T15:08:41.105Z,50.97
2018-08-07T15:09:41.137Z,50.97
2018-08-07T15:10:41.139Z,50.87
2018-08-07T15:11:41.165Z,51.07
2018-08-07T15:12:41.204Z,50.97
2018-08-07T15:13:41.201Z,50.97
2018-08-07T15:14:41.226Z,50.97
2018-08-07T15:15:41.259Z,51.26
2018-08-07T15:16:41.304Z,50.87
2018-08-07T15:17:41.302Z,51.45
2018-08-07T15:18:41.318Z,51.36
2018-08-07T15:19:41.338Z,50.78
2018-08-07T15:20:41.398Z,50.87
2018-08-07T15:21:41.374Z,50.87
2018-08-07T15:22:41.395Z,50.87
2018-08-07T15:23:41.419Z,50.97
2018-08-07T15:24:41.449Z,50.97
2018-08-07T15:25:41.468Z,50.87
2018-08-07T15:26:41.490Z,50.58
2018-08-07T15:27:41.505Z,50.87
2018-08-07T15:28:41.533Z,50.78
2018-08-07T15:29:41.549Z,51.07
2018-08-07T15:30:41.578Z,50.58
2018-08-07T15:31:41.593Z,50.87
2018-08-07T15:32:41.614Z,50.87
2018-08-07T15:33:41.639Z,50.97
2018-08-07T15:34:41.657Z,50.80
2018-08-07T15:35:41.695Z,51.07
2018-08-07T15:36:41.701Z,50.97
2018-08-07T15:37:41.722Z,50.97
2018-08-07T15:38:41.751Z,50.87
2018-08-07T15:39:41.791Z,51.17